sensor_id;sensor_type;location;lat;lon;timestamp;P1;durP1;ratioP1;P2;durP2;ratioP2
43216;SDS011;60511;42.686;23.300;2022-12-20T00:01:58;4.90;;;4.40;;
43216;SDS011;60511;42.686;23.300;2022-12-20T00:04:00;5.00;;;4.53;;
43216;SDS011;60511;42.686;23.300;2022-12-20T00:06:01;4.38;;;4.00;;
43216;SDS011;60511;42.686;23.300;2022-12-20T00:08:02;4.88;;;4.40;;
43216;SDS011;60511;42.686;23.300;2022-12-20T00:10:02;4.90;;;4.40;;
43216;SDS011;60511;42.686;23.300;2022-12-20T00:12:03;4.97;;;4.47;;
43216;SDS011;60511;42.686;23.300;2022-12-20T00:14:04;4.57;;;4.18;;
43216;SDS011;60511;42.686;23.300;2022-12-20T00:16:14;4.88;;;4.07;;
43216;SDS011;60511;42.686;23.300;2022-12-20T00:18:16;3.75;;;3.35;;
43216;SDS011;60511;42.686;23.300;2022-12-20T00:20:16;4.53;;;4.13;;
43216;SDS011;60511;42.686;23.300;2022-12-20T00:22:17;4.47;;;4.07;;
43216;SDS011;60511;42.686;23.300;2022-12-20T00:24:17;5.03;;;4.57;;
43216;SDS011;60511;42.686;23.300;2022-12-20T00:26:19;4.50;;;4.05;;
43216;SDS011;60511;42.686;23.300;2022-12-20T00:28:22;4.93;;;4.53;;
43216;SDS011;60511;42.686;23.300;2022-12-20T00:30:22;5.75;;;4.82;;
43216;SDS011;60511;42.686;23.300;2022-12-20T00:32:22;4.95;;;4.05;;
43216;SDS011;60511;42.686;23.300;2022-12-20T00:34:23;4.68;;;4.13;;
43216;SDS011;60511;42.686;23.300;2022-12-20T00:36:24;4.75;;;4.32;;
43216;SDS011;60511;42.686;23.300;2022-12-20T00:38:26;4.60;;;4.20;;
43216;SDS011;60511;42.686;23.300;2022-12-20T00:40:27;4.80;;;4.30;;
43216;SDS011;60511;42.686;23.300;2022-12-20T00:42:27;4.63;;;4.22;;
43216;SDS011;60511;42.686;23.300;2022-12-20T00:44:28;4.38;;;3.97;;
43216;SDS011;60511;42.686;23.300;2022-12-20T00:46:29;5.50;;;4.28;;
43216;SDS011;60511;42.686;23.300;2022-12-20T00:48:30;5.28;;;4.78;;
43216;SDS011;60511;42.686;23.300;2022-12-20T00:50:31;6.15;;;4.72;;
43216;SDS011;60511;42.686;23.300;2022-12-20T00:52:32;5.00;;;4.32;;
43216;SDS011;60511;42.686;23.300;2022-12-20T00:54:32;5.40;;;4.75;;
43216;SDS011;60511;42.686;23.300;2022-12-20T00:56:33;6.35;;;4.30;;
43216;SDS011;60511;42.686;23.300;2022-12-20T00:58:35;4.60;;;4.20;;
43216;SDS011;60511;42.686;23.300;2022-12-20T01:00:37;6.18;;;4.57;;
43216;SDS011;60511;42.686;23.300;2022-12-20T01:02:38;4.65;;;4.25;;
43216;SDS011;60511;42.686;23.300;2022-12-20T01:04:39;6.72;;;4.68;;
43216;SDS011;60511;42.686;23.300;2022-12-20T01:06:39;4.55;;;4.13;;
43216;SDS011;60511;42.686;23.300;2022-12-20T01:08:40;5.07;;;4.57;;
43216;SDS011;60511;42.686;23.300;2022-12-20T01:10:40;4.45;;;3.90;;
43216;SDS011;60511;42.686;23.300;2022-12-20T01:12:41;4.80;;;4.35;;
43216;SDS011;60511;42.686;23.300;2022-12-20T01:14:41;4.60;;;4.10;;
43216;SDS011;60511;42.686;23.300;2022-12-20T01:16:44;5.25;;;4.75;;
43216;SDS011;60511;42.686;23.300;2022-12-20T01:20:47;4.75;;;4.18;;
43216;SDS011;60511;42.686;23.300;2022-12-20T01:22:47;6.47;;;4.18;;
43216;SDS011;60511;42.686;23.300;2022-12-20T01:24:47;5.18;;;4.28;;
43216;SDS011;60511;42.686;23.300;2022-12-20T01:26:48;4.25;;;3.85;;
43216;SDS011;60511;42.686;23.300;2022-12-20T01:28:51;5.00;;;4.10;;
43216;SDS011;60511;42.686;23.300;2022-12-20T01:30:52;4.80;;;4.30;;
43216;SDS011;60511;42.686;23.300;2022-12-20T01:32:53;4.65;;;4.20;;
43216;SDS011;60511;42.686;23.300;2022-12-20T01:34:53;4.85;;;4.35;;
43216;SDS011;60511;42.686;23.300;2022-12-20T01:36:54;4.80;;;4.30;;
43216;SDS011;60511;42.686;23.300;2022-12-20T01:38:55;4.20;;;3.80;;
43216;SDS011;60511;42.686;23.300;2022-12-20T01:41:07;4.70;;;4.30;;
43216;SDS011;60511;42.686;23.300;2022-12-20T01:43:14;4.85;;;4.28;;
43216;SDS011;60511;42.686;23.300;2022-12-20T01:45:20;4.97;;;4.32;;
43216;SDS011;60511;42.686;23.300;2022-12-20T01:47:25;4.57;;;4.18;;
43216;SDS011;60511;42.686;23.300;2022-12-20T01:49:31;4.63;;;4.00;;
43216;SDS011;60511;42.686;23.300;2022-12-20T01:51:38;4.28;;;3.88;;
43216;SDS011;60511;42.686;23.300;2022-12-20T01:53:42;4.32;;;3.92;;
43216;SDS011;60511;42.686;23.300;2022-12-20T01:55:42;4.75;;;4.30;;
43216;SDS011;60511;42.686;23.300;2022-12-20T01:57:48;4.68;;;4.28;;
43216;SDS011;60511;42.686;23.300;2022-12-20T01:59:50;4.70;;;4.30;;
43216;SDS011;60511;42.686;23.300;2022-12-20T02:01:52;5.60;;;4.45;;
43216;SDS011;60511;42.686;23.300;2022-12-20T02:03:57;4.55;;;4.15;;
43216;SDS011;60511;42.686;23.300;2022-12-20T02:05:57;5.32;;;4.65;;
43216;SDS011;60511;42.686;23.300;2022-12-20T02:08:14;4.68;;;4.20;;
43216;SDS011;60511;42.686;23.300;2022-12-20T02:10:18;4.55;;;4.13;;
43216;SDS011;60511;42.686;23.300;2022-12-20T02:12:22;4.53;;;4.10;;
43216;SDS011;60511;42.686;23.300;2022-12-20T02:14:37;5.20;;;4.43;;
43216;SDS011;60511;42.686;23.300;2022-12-20T02:16:49;4.55;;;4.15;;
43216;SDS011;60511;42.686;23.300;2022-12-20T02:21:30;5.00;;;4.38;;
43216;SDS011;60511;42.686;23.300;2022-12-20T02:28:20;5.55;;;4.18;;
43216;SDS011;60511;42.686;23.300;2022-12-20T02:30:33;4.90;;;4.28;;
43216;SDS011;60511;42.686;23.300;2022-12-20T02:32:41;5.13;;;4.10;;
43216;SDS011;60511;42.686;23.300;2022-12-20T02:34:49;4.78;;;4.35;;
43216;SDS011;60511;42.686;23.300;2022-12-20T02:36:50;4.68;;;4.28;;
43216;SDS011;60511;42.686;23.300;2022-12-20T02:38:51;4.60;;;4.20;;
43216;SDS011;60511;42.686;23.300;2022-12-20T02:40:53;5.15;;;4.45;;
43216;SDS011;60511;42.686;23.300;2022-12-20T02:42:58;5.05;;;4.55;;
43216;SDS011;60511;42.686;23.300;2022-12-20T02:45:04;4.10;;;3.70;;
43216;SDS011;60511;42.686;23.300;2022-12-20T02:47:17;4.55;;;4.15;;
43216;SDS011;60511;42.686;23.300;2022-12-20T02:49:22;4.53;;;3.90;;
43216;SDS011;60511;42.686;23.300;2022-12-20T02:51:27;4.47;;;4.07;;
43216;SDS011;60511;42.686;23.300;2022-12-20T02:53:31;4.55;;;4.03;;
43216;SDS011;60511;42.686;23.300;2022-12-20T02:55:55;4.65;;;4.13;;
43216;SDS011;60511;42.686;23.300;2022-12-20T02:58:01;4.80;;;4.35;;
43216;SDS011;60511;42.686;23.300;2022-12-20T03:00:15;4.93;;;4.13;;
43216;SDS011;60511;42.686;23.300;2022-12-20T03:02:18;4.85;;;4.22;;
43216;SDS011;60511;42.686;23.300;2022-12-20T03:04:23;4.43;;;3.92;;
43216;SDS011;60511;42.686;23.300;2022-12-20T03:06:26;4.60;;;4.20;;
43216;SDS011;60511;42.686;23.300;2022-12-20T03:08:28;4.25;;;3.85;;
43216;SDS011;60511;42.686;23.300;2022-12-20T03:10:29;4.28;;;3.67;;
43216;SDS011;60511;42.686;23.300;2022-12-20T03:12:29;4.50;;;4.10;;
43216;SDS011;60511;42.686;23.300;2022-12-20T03:14:30;5.07;;;4.57;;
43216;SDS011;60511;42.686;23.300;2022-12-20T03:16:30;5.43;;;4.78;;
43216;SDS011;60511;42.686;23.300;2022-12-20T03:18:31;4.25;;;3.85;;
43216;SDS011;60511;42.686;23.300;2022-12-20T03:20:31;4.38;;;4.00;;
43216;SDS011;60511;42.686;23.300;2022-12-20T03:22:32;4.72;;;4.05;;
43216;SDS011;60511;42.686;23.300;2022-12-20T03:24:33;4.25;;;3.78;;
43216;SDS011;60511;42.686;23.300;2022-12-20T03:26:34;4.88;;;4.38;;
43216;SDS011;60511;42.686;23.300;2022-12-20T03:28:34;12.93;;;3.67;;
43216;SDS011;60511;42.686;23.300;2022-12-20T03:30:35;5.00;;;4.43;;
43216;SDS011;60511;42.686;23.300;2022-12-20T03:32:35;4.20;;;3.80;;
43216;SDS011;60511;42.686;23.300;2022-12-20T03:34:35;4.40;;;4.00;;
43216;SDS011;60511;42.686;23.300;2022-12-20T03:36:36;4.38;;;3.97;;
43216;SDS011;60511;42.686;23.300;2022-12-20T03:38:36;4.05;;;3.65;;
43216;SDS011;60511;42.686;23.300;2022-12-20T03:40:36;4.38;;;3.97;;
43216;SDS011;60511;42.686;23.300;2022-12-20T03:42:37;4.47;;;4.03;;
43216;SDS011;60511;42.686;23.300;2022-12-20T03:44:37;3.88;;;3.47;;
43216;SDS011;60511;42.686;23.300;2022-12-20T03:46:38;4.88;;;4.38;;
43216;SDS011;60511;42.686;23.300;2022-12-20T03:48:38;4.63;;;4.03;;
43216;SDS011;60511;42.686;23.300;2022-12-20T03:50:39;4.28;;;3.88;;
43216;SDS011;60511;42.686;23.300;2022-12-20T03:52:40;4.32;;;3.92;;
43216;SDS011;60511;42.686;23.300;2022-12-20T03:54:40;4.70;;;4.18;;
43216;SDS011;60511;42.686;23.300;2022-12-20T03:56:40;4.38;;;3.97;;
43216;SDS011;60511;42.686;23.300;2022-12-20T03:58:41;4.53;;;4.05;;
43216;SDS011;60511;42.686;23.300;2022-12-20T04:00:41;4.70;;;3.72;;
43216;SDS011;60511;42.686;23.300;2022-12-20T04:02:42;4.88;;;4.38;;
43216;SDS011;60511;42.686;23.300;2022-12-20T04:04:43;4.28;;;3.97;;
43216;SDS011;60511;42.686;23.300;2022-12-20T04:06:43;4.25;;;3.85;;
43216;SDS011;60511;42.686;23.300;2022-12-20T04:08:44;4.53;;;3.70;;
43216;SDS011;60511;42.686;23.300;2022-12-20T04:10:45;4.13;;;3.72;;
43216;SDS011;60511;42.686;23.300;2022-12-20T04:13:03;4.75;;;4.25;;
43216;SDS011;60511;42.686;23.300;2022-12-20T04:15:04;4.15;;;3.75;;
43216;SDS011;60511;42.686;23.300;2022-12-20T04:17:05;4.65;;;4.15;;
43216;SDS011;60511;42.686;23.300;2022-12-20T04:19:05;4.45;;;4.05;;
43216;SDS011;60511;42.686;23.300;2022-12-20T04:21:06;4.50;;;4.10;;
43216;SDS011;60511;42.686;23.300;2022-12-20T04:23:07;4.90;;;4.18;;
43216;SDS011;60511;42.686;23.300;2022-12-20T04:25:08;5.03;;;4.30;;
43216;SDS011;60511;42.686;23.300;2022-12-20T04:27:08;3.80;;;3.50;;
43216;SDS011;60511;42.686;23.300;2022-12-20T04:29:08;4.15;;;3.55;;
43216;SDS011;60511;42.686;23.300;2022-12-20T04:31:09;4.57;;;4.13;;
43216;SDS011;60511;42.686;23.300;2022-12-20T04:33:09;4.20;;;3.80;;
43216;SDS011;60511;42.686;23.300;2022-12-20T04:35:10;4.55;;;4.10;;
43216;SDS011;60511;42.686;23.300;2022-12-20T04:37:10;4.75;;;4.35;;
43216;SDS011;60511;42.686;23.300;2022-12-20T04:39:10;4.70;;;4.30;;
43216;SDS011;60511;42.686;23.300;2022-12-20T04:41:11;4.85;;;4.03;;
43216;SDS011;60511;42.686;23.300;2022-12-20T04:43:21;4.75;;;4.30;;
43216;SDS011;60511;42.686;23.300;2022-12-20T04:45:22;4.43;;;4.03;;
43216;SDS011;60511;42.686;23.300;2022-12-20T04:47:23;4.22;;;3.70;;
43216;SDS011;60511;42.686;23.300;2022-12-20T04:49:23;4.32;;;3.92;;
43216;SDS011;60511;42.686;23.300;2022-12-20T04:51:23;5.15;;;4.28;;
43216;SDS011;60511;42.686;23.300;2022-12-20T04:53:24;5.05;;;4.55;;
43216;SDS011;60511;42.686;23.300;2022-12-20T04:55:43;4.47;;;4.05;;
43216;SDS011;60511;42.686;23.300;2022-12-20T04:57:43;4.05;;;3.70;;
43216;SDS011;60511;42.686;23.300;2022-12-20T04:59:44;4.72;;;4.07;;
43216;SDS011;60511;42.686;23.300;2022-12-20T05:01:44;5.05;;;4.55;;
43216;SDS011;60511;42.686;23.300;2022-12-20T05:03:45;4.10;;;3.75;;
43216;SDS011;60511;42.686;23.300;2022-12-20T05:05:46;3.75;;;3.45;;
43216;SDS011;60511;42.686;23.300;2022-12-20T05:07:47;4.35;;;3.95;;
43216;SDS011;60511;42.686;23.300;2022-12-20T05:09:47;4.88;;;4.07;;
43216;SDS011;60511;42.686;23.300;2022-12-20T05:11:48;4.40;;;3.92;;
43216;SDS011;60511;42.686;23.300;2022-12-20T05:13:48;5.72;;;3.97;;
43216;SDS011;60511;42.686;23.300;2022-12-20T05:15:54;4.40;;;3.47;;
43216;SDS011;60511;42.686;23.300;2022-12-20T05:17:55;4.03;;;3.60;;
43216;SDS011;60511;42.686;23.300;2022-12-20T05:19:59;4.88;;;3.90;;
43216;SDS011;60511;42.686;23.300;2022-12-20T05:21:59;4.63;;;4.13;;
43216;SDS011;60511;42.686;23.300;2022-12-20T05:24:18;4.90;;;4.35;;
43216;SDS011;60511;42.686;23.300;2022-12-20T05:26:37;4.72;;;4.15;;
43216;SDS011;60511;42.686;23.300;2022-12-20T05:28:37;4.07;;;3.67;;
43216;SDS011;60511;42.686;23.300;2022-12-20T05:30:38;4.70;;;4.30;;
43216;SDS011;60511;42.686;23.300;2022-12-20T05:32:38;4.80;;;4.38;;
43216;SDS011;60511;42.686;23.300;2022-12-20T05:34:38;4.32;;;3.53;;
43216;SDS011;60511;42.686;23.300;2022-12-20T05:36:39;4.93;;;3.85;;
43216;SDS011;60511;42.686;23.300;2022-12-20T05:38:39;5.80;;;4.13;;
43216;SDS011;60511;42.686;23.300;2022-12-20T05:40:40;5.07;;;3.63;;
43216;SDS011;60511;42.686;23.300;2022-12-20T05:42:40;4.50;;;4.00;;
43216;SDS011;60511;42.686;23.300;2022-12-20T05:44:41;4.22;;;3.83;;
43216;SDS011;60511;42.686;23.300;2022-12-20T05:46:41;5.07;;;4.03;;
43216;SDS011;60511;42.686;23.300;2022-12-20T05:48:41;4.68;;;4.28;;
43216;SDS011;60511;42.686;23.300;2022-12-20T05:50:42;4.63;;;3.95;;
43216;SDS011;60511;42.686;23.300;2022-12-20T05:52:43;5.38;;;4.30;;
43216;SDS011;60511;42.686;23.300;2022-12-20T05:54:44;5.70;;;4.28;;
43216;SDS011;60511;42.686;23.300;2022-12-20T05:56:44;4.13;;;3.70;;
43216;SDS011;60511;42.686;23.300;2022-12-20T05:58:44;4.30;;;3.90;;
43216;SDS011;60511;42.686;23.300;2022-12-20T06:00:45;4.25;;;3.85;;
43216;SDS011;60511;42.686;23.300;2022-12-20T06:02:46;4.75;;;4.35;;
43216;SDS011;60511;42.686;23.300;2022-12-20T06:04:46;5.10;;;4.43;;
43216;SDS011;60511;42.686;23.300;2022-12-20T06:06:47;4.32;;;3.92;;
43216;SDS011;60511;42.686;23.300;2022-12-20T06:08:47;3.63;;;3.33;;
43216;SDS011;60511;42.686;23.300;2022-12-20T06:10:48;4.63;;;4.15;;
43216;SDS011;60511;42.686;23.300;2022-12-20T06:12:48;5.88;;;3.85;;
43216;SDS011;60511;42.686;23.300;2022-12-20T06:14:49;5.03;;;4.38;;
43216;SDS011;60511;42.686;23.300;2022-12-20T06:16:50;5.00;;;4.35;;
43216;SDS011;60511;42.686;23.300;2022-12-20T06:18:50;5.10;;;4.18;;
43216;SDS011;60511;42.686;23.300;2022-12-20T06:20:51;4.30;;;3.90;;
43216;SDS011;60511;42.686;23.300;2022-12-20T06:22:52;4.38;;;3.95;;
43216;SDS011;60511;42.686;23.300;2022-12-20T06:24:53;3.40;;;3.10;;
43216;SDS011;60511;42.686;23.300;2022-12-20T06:26:53;4.28;;;3.88;;
43216;SDS011;60511;42.686;23.300;2022-12-20T06:28:53;4.68;;;4.25;;
43216;SDS011;60511;42.686;23.300;2022-12-20T06:30:56;5.50;;;4.68;;
43216;SDS011;60511;42.686;23.300;2022-12-20T06:32:57;6.82;;;4.10;;
43216;SDS011;60511;42.686;23.300;2022-12-20T06:34:58;6.07;;;4.30;;
43216;SDS011;60511;42.686;23.300;2022-12-20T06:36:58;6.80;;;3.72;;
43216;SDS011;60511;42.686;23.300;2022-12-20T06:38:58;5.68;;;4.15;;
43216;SDS011;60511;42.686;23.300;2022-12-20T06:40:59;4.63;;;3.90;;
43216;SDS011;60511;42.686;23.300;2022-12-20T06:42:59;4.32;;;3.90;;
43216;SDS011;60511;42.686;23.300;2022-12-20T06:45:00;9.95;;;5.65;;
43216;SDS011;60511;42.686;23.300;2022-12-20T06:47:01;5.50;;;4.57;;
43216;SDS011;60511;42.686;23.300;2022-12-20T06:49:01;7.78;;;4.45;;
43216;SDS011;60511;42.686;23.300;2022-12-20T06:51:02;4.82;;;4.35;;
43216;SDS011;60511;42.686;23.300;2022-12-20T06:53:02;4.95;;;4.22;;
43216;SDS011;60511;42.686;23.300;2022-12-20T06:55:03;5.13;;;4.10;;
43216;SDS011;60511;42.686;23.300;2022-12-20T06:57:03;5.43;;;3.90;;
43216;SDS011;60511;42.686;23.300;2022-12-20T06:59:05;4.70;;;4.10;;
43216;SDS011;60511;42.686;23.300;2022-12-20T07:01:06;5.05;;;4.45;;
43216;SDS011;60511;42.686;23.300;2022-12-20T07:03:06;6.70;;;4.80;;
43216;SDS011;60511;42.686;23.300;2022-12-20T07:05:07;4.90;;;4.47;;
43216;SDS011;60511;42.686;23.300;2022-12-20T07:07:07;6.18;;;4.75;;
43216;SDS011;60511;42.686;23.300;2022-12-20T07:09:08;5.90;;;4.50;;
43216;SDS011;60511;42.686;23.300;2022-12-20T07:11:08;4.38;;;3.92;;
43216;SDS011;60511;42.686;23.300;2022-12-20T07:13:09;4.50;;;4.10;;
43216;SDS011;60511;42.686;23.300;2022-12-20T07:15:10;4.75;;;4.25;;
43216;SDS011;60511;42.686;23.300;2022-12-20T07:17:10;5.03;;;4.55;;
43216;SDS011;60511;42.686;23.300;2022-12-20T07:19:11;7.15;;;4.68;;
43216;SDS011;60511;42.686;23.300;2022-12-20T07:21:12;5.00;;;3.85;;
43216;SDS011;60511;42.686;23.300;2022-12-20T07:23:15;5.47;;;4.15;;
43216;SDS011;60511;42.686;23.300;2022-12-20T07:25:17;4.85;;;4.45;;
43216;SDS011;60511;42.686;23.300;2022-12-20T07:27:19;5.40;;;4.25;;
43216;SDS011;60511;42.686;23.300;2022-12-20T07:29:19;4.60;;;4.20;;
43216;SDS011;60511;42.686;23.300;2022-12-20T07:31:20;4.60;;;4.00;;
43216;SDS011;60511;42.686;23.300;2022-12-20T07:33:20;5.20;;;4.50;;
43216;SDS011;60511;42.686;23.300;2022-12-20T07:35:20;4.78;;;4.38;;
43216;SDS011;60511;42.686;23.300;2022-12-20T07:37:21;5.38;;;4.30;;
43216;SDS011;60511;42.686;23.300;2022-12-20T07:39:21;5.07;;;4.38;;
43216;SDS011;60511;42.686;23.300;2022-12-20T07:41:22;5.28;;;4.28;;
43216;SDS011;60511;42.686;23.300;2022-12-20T07:43:24;5.78;;;4.68;;
43216;SDS011;60511;42.686;23.300;2022-12-20T07:45:24;5.28;;;4.78;;
43216;SDS011;60511;42.686;23.300;2022-12-20T07:47:24;4.75;;;4.30;;
43216;SDS011;60511;42.686;23.300;2022-12-20T07:49:25;5.70;;;4.82;;
43216;SDS011;60511;42.686;23.300;2022-12-20T07:51:27;4.78;;;4.13;;
43216;SDS011;60511;42.686;23.300;2022-12-20T07:53:30;5.47;;;4.05;;
43216;SDS011;60511;42.686;23.300;2022-12-20T07:57:39;5.25;;;4.75;;
43216;SDS011;60511;42.686;23.300;2022-12-20T07:59:49;4.50;;;4.10;;
43216;SDS011;60511;42.686;23.300;2022-12-20T08:01:52;5.40;;;4.57;;
43216;SDS011;60511;42.686;23.300;2022-12-20T08:04:36;4.95;;;4.40;;
43216;SDS011;60511;42.686;23.300;2022-12-20T08:06:20;4.93;;;4.45;;
43216;SDS011;60511;42.686;23.300;2022-12-20T08:08:21;5.43;;;4.90;;
43216;SDS011;60511;42.686;23.300;2022-12-20T08:10:21;4.88;;;4.47;;
43216;SDS011;60511;42.686;23.300;2022-12-20T08:12:22;5.32;;;4.60;;
43216;SDS011;60511;42.686;23.300;2022-12-20T08:14:23;5.32;;;4.65;;
43216;SDS011;60511;42.686;23.300;2022-12-20T08:16:24;5.03;;;4.35;;
43216;SDS011;60511;42.686;23.300;2022-12-20T08:18:25;4.63;;;4.13;;
43216;SDS011;60511;42.686;23.300;2022-12-20T08:20:25;5.07;;;4.57;;
43216;SDS011;60511;42.686;23.300;2022-12-20T08:22:26;5.47;;;4.97;;
43216;SDS011;60511;42.686;23.300;2022-12-20T08:24:26;5.63;;;4.30;;
43216;SDS011;60511;42.686;23.300;2022-12-20T08:26:26;4.57;;;4.20;;
43216;SDS011;60511;42.686;23.300;2022-12-20T08:28:27;4.18;;;3.78;;
43216;SDS011;60511;42.686;23.300;2022-12-20T08:30:27;5.90;;;4.68;;
43216;SDS011;60511;42.686;23.300;2022-12-20T08:32:28;5.03;;;4.43;;
43216;SDS011;60511;42.686;23.300;2022-12-20T08:34:28;5.53;;;4.95;;
43216;SDS011;60511;42.686;23.300;2022-12-20T08:36:29;4.85;;;4.28;;
43216;SDS011;60511;42.686;23.300;2022-12-20T08:38:30;4.47;;;4.00;;
43216;SDS011;60511;42.686;23.300;2022-12-20T08:40:31;4.75;;;4.25;;
43216;SDS011;60511;42.686;23.300;2022-12-20T08:42:31;4.47;;;4.03;;
43216;SDS011;60511;42.686;23.300;2022-12-20T08:44:31;4.97;;;4.45;;
43216;SDS011;60511;42.686;23.300;2022-12-20T08:46:32;5.13;;;4.50;;
43216;SDS011;60511;42.686;23.300;2022-12-20T08:48:32;5.22;;;4.68;;
43216;SDS011;60511;42.686;23.300;2022-12-20T08:50:33;4.60;;;4.05;;
43216;SDS011;60511;42.686;23.300;2022-12-20T08:52:33;5.22;;;4.60;;
43216;SDS011;60511;42.686;23.300;2022-12-20T08:54:34;5.65;;;4.47;;
43216;SDS011;60511;42.686;23.300;2022-12-20T08:56:34;6.40;;;4.75;;
43216;SDS011;60511;42.686;23.300;2022-12-20T08:58:35;5.07;;;4.57;;
43216;SDS011;60511;42.686;23.300;2022-12-20T09:00:36;5.47;;;4.30;;
43216;SDS011;60511;42.686;23.300;2022-12-20T09:02:36;5.78;;;5.07;;
43216;SDS011;60511;42.686;23.300;2022-12-20T09:04:37;5.22;;;4.45;;
43216;SDS011;60511;42.686;23.300;2022-12-20T09:06:37;6.55;;;5.07;;
43216;SDS011;60511;42.686;23.300;2022-12-20T09:08:38;5.15;;;4.47;;
43216;SDS011;60511;42.686;23.300;2022-12-20T09:10:40;5.05;;;4.53;;
43216;SDS011;60511;42.686;23.300;2022-12-20T09:12:40;5.75;;;5.15;;
43216;SDS011;60511;42.686;23.300;2022-12-20T09:14:42;5.30;;;4.80;;
43216;SDS011;60511;42.686;23.300;2022-12-20T09:16:42;5.32;;;4.80;;
43216;SDS011;60511;42.686;23.300;2022-12-20T09:18:43;6.00;;;5.40;;
43216;SDS011;60511;42.686;23.300;2022-12-20T09:20:47;5.43;;;4.70;;
43216;SDS011;60511;42.686;23.300;2022-12-20T09:22:47;5.72;;;5.03;;
43216;SDS011;60511;42.686;23.300;2022-12-20T09:24:47;5.55;;;4.38;;
43216;SDS011;60511;42.686;23.300;2022-12-20T09:26:48;5.82;;;5.18;;
43216;SDS011;60511;42.686;23.300;2022-12-20T09:28:48;5.63;;;5.07;;
43216;SDS011;60511;42.686;23.300;2022-12-20T09:30:50;6.30;;;5.35;;
43216;SDS011;60511;42.686;23.300;2022-12-20T09:32:50;5.40;;;4.72;;
43216;SDS011;60511;42.686;23.300;2022-12-20T09:34:50;5.78;;;5.18;;
43216;SDS011;60511;42.686;23.300;2022-12-20T09:36:51;5.95;;;5.32;;
43216;SDS011;60511;42.686;23.300;2022-12-20T09:38:52;5.30;;;4.80;;
43216;SDS011;60511;42.686;23.300;2022-12-20T09:40:54;5.13;;;4.63;;
43216;SDS011;60511;42.686;23.300;2022-12-20T09:45:07;6.88;;;4.80;;
43216;SDS011;60511;42.686;23.300;2022-12-20T09:47:17;5.30;;;4.80;;
43216;SDS011;60511;42.686;23.300;2022-12-20T09:49:24;5.95;;;5.32;;
43216;SDS011;60511;42.686;23.300;2022-12-20T09:56:13;5.65;;;5.00;;
43216;SDS011;60511;42.686;23.300;2022-12-20T09:58:27;5.30;;;4.45;;
43216;SDS011;60511;42.686;23.300;2022-12-20T10:00:40;5.60;;;4.97;;
43216;SDS011;60511;42.686;23.300;2022-12-20T10:02:44;5.07;;;4.57;;
43216;SDS011;60511;42.686;23.300;2022-12-20T10:04:45;5.65;;;5.05;;
43216;SDS011;60511;42.686;23.300;2022-12-20T10:08:50;5.50;;;4.85;;
43216;SDS011;60511;42.686;23.300;2022-12-20T10:11:01;5.57;;;4.70;;
43216;SDS011;60511;42.686;23.300;2022-12-20T10:13:07;5.80;;;5.22;;
43216;SDS011;60511;42.686;23.300;2022-12-20T10:15:17;5.20;;;4.70;;
43216;SDS011;60511;42.686;23.300;2022-12-20T10:17:26;5.80;;;5.20;;
43216;SDS011;60511;42.686;23.300;2022-12-20T10:21:51;5.85;;;5.25;;
43216;SDS011;60511;42.686;23.300;2022-12-20T10:24:01;6.30;;;5.45;;
43216;SDS011;60511;42.686;23.300;2022-12-20T10:28:12;5.40;;;4.85;;
43216;SDS011;60511;42.686;23.300;2022-12-20T10:30:18;6.15;;;5.55;;
43216;SDS011;60511;42.686;23.300;2022-12-20T10:32:22;6.07;;;5.05;;
43216;SDS011;60511;42.686;23.300;2022-12-20T10:34:23;5.60;;;5.10;;
43216;SDS011;60511;42.686;23.300;2022-12-20T10:38:27;6.13;;;5.53;;
43216;SDS011;60511;42.686;23.300;2022-12-20T10:40:47;5.57;;;4.88;;
43216;SDS011;60511;42.686;23.300;2022-12-20T10:42:59;5.45;;;4.95;;
43216;SDS011;60511;42.686;23.300;2022-12-20T10:45:01;6.70;;;5.07;;
43216;SDS011;60511;42.686;23.300;2022-12-20T10:47:03;5.65;;;5.15;;
43216;SDS011;60511;42.686;23.300;2022-12-20T10:51:30;5.35;;;4.85;;
43216;SDS011;60511;42.686;23.300;2022-12-20T10:53:30;5.13;;;4.68;;
43216;SDS011;60511;42.686;23.300;2022-12-20T10:55:32;5.50;;;4.97;;
43216;SDS011;60511;42.686;23.300;2022-12-20T10:57:34;5.75;;;4.97;;
43216;SDS011;60511;42.686;23.300;2022-12-20T10:59:35;5.80;;;5.20;;
43216;SDS011;60511;42.686;23.300;2022-12-20T11:01:38;5.45;;;5.00;;
43216;SDS011;60511;42.686;23.300;2022-12-20T11:03:51;5.60;;;4.97;;
43216;SDS011;60511;42.686;23.300;2022-12-20T11:05:58;5.82;;;5.32;;
43216;SDS011;60511;42.686;23.300;2022-12-20T11:08:12;5.78;;;5.00;;
43216;SDS011;60511;42.686;23.300;2022-12-20T11:12:18;5.83;;;5.23;;
43216;SDS011;60511;42.686;23.300;2022-12-20T11:14:19;6.32;;;4.95;;
43216;SDS011;60511;42.686;23.300;2022-12-20T11:16:21;5.63;;;4.95;;
43216;SDS011;60511;42.686;23.300;2022-12-20T11:27:40;5.53;;;4.88;;
43216;SDS011;60511;42.686;23.300;2022-12-20T11:30:05;6.13;;;5.53;;
43216;SDS011;60511;42.686;23.300;2022-12-20T11:32:23;5.43;;;4.93;;
43216;SDS011;60511;42.686;23.300;2022-12-20T11:43:51;5.80;;;5.30;;
43216;SDS011;60511;42.686;23.300;2022-12-20T11:55:38;5.68;;;5.05;;
43216;SDS011;60511;42.686;23.300;2022-12-20T11:57:42;5.20;;;4.70;;
43216;SDS011;60511;42.686;23.300;2022-12-20T11:59:51;5.55;;;5.05;;
43216;SDS011;60511;42.686;23.300;2022-12-20T12:04:15;5.32;;;4.82;;
43216;SDS011;60511;42.686;23.300;2022-12-20T12:06:22;5.93;;;5.32;;
43216;SDS011;60511;42.686;23.300;2022-12-20T12:08:37;5.68;;;5.07;;
43216;SDS011;60511;42.686;23.300;2022-12-20T12:10:40;6.47;;;5.07;;
43216;SDS011;60511;42.686;23.300;2022-12-20T12:12:46;6.43;;;4.95;;
43216;SDS011;60511;42.686;23.300;2022-12-20T12:17:07;5.40;;;4.43;;
43216;SDS011;60511;42.686;23.300;2022-12-20T12:19:13;6.70;;;5.35;;
43216;SDS011;60511;42.686;23.300;2022-12-20T12:21:26;5.43;;;4.93;;
43216;SDS011;60511;42.686;23.300;2022-12-20T12:25:35;4.90;;;4.40;;
43216;SDS011;60511;42.686;23.300;2022-12-20T12:27:36;6.22;;;5.28;;
43216;SDS011;60511;42.686;23.300;2022-12-20T12:29:37;6.18;;;5.57;;
43216;SDS011;60511;42.686;23.300;2022-12-20T12:31:42;6.22;;;5.63;;
43216;SDS011;60511;42.686;23.300;2022-12-20T12:33:49;5.53;;;4.90;;
43216;SDS011;60511;42.686;23.300;2022-12-20T12:40:28;6.20;;;5.00;;
43216;SDS011;60511;42.686;23.300;2022-12-20T12:45:19;6.55;;;4.65;;
43216;SDS011;60511;42.686;23.300;2022-12-20T12:47:36;6.15;;;5.20;;
43216;SDS011;60511;42.686;23.300;2022-12-20T12:49:52;5.43;;;4.90;;
43216;SDS011;60511;42.686;23.300;2022-12-20T12:51:56;5.50;;;5.00;;
43216;SDS011;60511;42.686;23.300;2022-12-20T12:58:30;6.82;;;5.53;;
43216;SDS011;60511;42.686;23.300;2022-12-20T13:02:57;5.93;;;5.00;;
43216;SDS011;60511;42.686;23.300;2022-12-20T13:04:59;5.53;;;5.00;;
43216;SDS011;60511;42.686;23.300;2022-12-20T13:11:37;6.97;;;5.30;;
43216;SDS011;60511;42.686;23.300;2022-12-20T13:13:39;5.63;;;5.10;;
43216;SDS011;60511;42.686;23.300;2022-12-20T13:17:44;7.03;;;5.05;;
43216;SDS011;60511;42.686;23.300;2022-12-20T13:19:49;5.82;;;5.07;;
43216;SDS011;60511;42.686;23.300;2022-12-20T13:21:57;6.85;;;5.15;;
43216;SDS011;60511;42.686;23.300;2022-12-20T13:26:59;7.60;;;4.57;;
43216;SDS011;60511;42.686;23.300;2022-12-20T13:29:17;11.32;;;5.85;;
43216;SDS011;60511;42.686;23.300;2022-12-20T13:38:21;6.63;;;5.40;;
43216;SDS011;60511;42.686;23.300;2022-12-20T13:40:44;8.15;;;5.95;;
43216;SDS011;60511;42.686;23.300;2022-12-20T13:42:50;6.30;;;5.70;;
43216;SDS011;60511;42.686;23.300;2022-12-20T13:44:53;8.10;;;5.97;;
43216;SDS011;60511;42.686;23.300;2022-12-20T13:49:00;7.05;;;6.03;;